Aviation Digital Data Service (ADDS)

Output produced by METARs form (2110 UTC 16 February 2019)
found at http://www.aviationweather.gov/metar/data/
 
METAR text: ZYCC 162100Z 24005MPS CAVOK M13/M18 Q1021 NOSIG
Conditions at: ZYCC (CHANGCHUN , CN) observed 2100 UTC 16 February 2019
Temperature: -13.0°C ( 9°F)
Dewpoint: -18.0°C (-0°F) [RH = 66%]
Pressure (altimeter): 30.15 inches Hg (1021.0 mb)
Winds: from the WSW (240 degrees) at 12 MPH (10 knots; 5.1 m/s)
Visibility: 6 or more miles (10+ km)
Ceiling: ceiling and visibility are OK
Clouds: unknown
Weather: no significant weather observed at this time

METAR text: ZYCC 162000Z 24005MPS CAVOK M12/M18 Q1021 NOSIG
Conditions at: ZYCC (CHANGCHUN , CN) observed 2000 UTC 16 February 2019
Temperature: -12.0°C (10°F)
Dewpoint: -18.0°C (-0°F) [RH = 61%]
Pressure (altimeter): 30.15 inches Hg (1021.0 mb)
Winds: from the WSW (240 degrees) at 12 MPH (10 knots; 5.1 m/s)
Visibility: 6 or more miles (10+ km)
Ceiling: ceiling and visibility are OK
Clouds: unknown
Weather: no significant weather observed at this time

METAR text: ZYCC 161900Z 25004MPS CAVOK M11/M18 Q1021 NOSIG
Conditions at: ZYCC (CHANGCHUN , CN) observed 1900 UTC 16 February 2019
Temperature: -11.0°C (12°F)
Dewpoint: -18.0°C (-0°F) [RH = 56%]
Pressure (altimeter): 30.15 inches Hg (1021.0 mb)
Winds: from the WSW (250 degrees) at 9 MPH (8 knots; 4.1 m/s)
Visibility: 6 or more miles (10+ km)
Ceiling: ceiling and visibility are OK
Clouds: unknown
Weather: no significant weather observed at this time

METAR text: ZYCC 161800Z 24005MPS CAVOK M10/M18 Q1021 NOSIG
Conditions at: ZYCC (CHANGCHUN , CN) observed 1800 UTC 16 February 2019
Temperature: -10.0°C (14°F)
Dewpoint: -18.0°C (-0°F) [RH = 52%]
Pressure (altimeter): 30.15 inches Hg (1021.0 mb)
Winds: from the WSW (240 degrees) at 12 MPH (10 knots; 5.1 m/s)
Visibility: 6 or more miles (10+ km)
Ceiling: ceiling and visibility are OK
Clouds: unknown
Weather: no significant weather observed at this time

METAR text: ZYCC 161700Z 24006MPS CAVOK M10/M18 Q1021 NOSIG
Conditions at: ZYCC (CHANGCHUN , CN) observed 1700 UTC 16 February 2019
Temperature: -10.0°C (14°F)
Dewpoint: -18.0°C (-0°F) [RH = 52%]
Pressure (altimeter): 30.15 inches Hg (1021.0 mb)
Winds: from the WSW (240 degrees) at 14 MPH (12 knots; 6.2 m/s)
Visibility: 6 or more miles (10+ km)
Ceiling: ceiling and visibility are OK
Clouds: unknown
Weather: no significant weather observed at this time

METAR text: ZYCC 161600Z 24006MPS CAVOK M10/M18 Q1021 NOSIG
Conditions at: ZYCC (CHANGCHUN , CN) observed 1600 UTC 16 February 2019
Temperature: -10.0°C (14°F)
Dewpoint: -18.0°C (-0°F) [RH = 52%]
Pressure (altimeter): 30.15 inches Hg (1021.0 mb)
Winds: from the WSW (240 degrees) at 14 MPH (12 knots; 6.2 m/s)
Visibility: 6 or more miles (10+ km)
Ceiling: ceiling and visibility are OK
Clouds: unknown
Weather: no significant weather observed at this time

METAR text: ZYCC 161500Z 24006MPS CAVOK M10/M17 Q1021 NOSIG
Conditions at: ZYCC (CHANGCHUN , CN) observed 1500 UTC 16 February 2019
Temperature: -10.0°C (14°F)
Dewpoint: -17.0°C ( 1°F) [RH = 57%]
Pressure (altimeter): 30.15 inches Hg (1021.0 mb)
Winds: from the WSW (240 degrees) at 14 MPH (12 knots; 6.2 m/s)
Visibility: 6 or more miles (10+ km)
Ceiling: ceiling and visibility are OK
Clouds: unknown
Weather: no significant weather observed at this time

METAR text: ZYCC 161400Z 24006MPS CAVOK M11/M17 Q1021 NOSIG
Conditions at: ZYCC (CHANGCHUN , CN) observed 1400 UTC 16 February 2019
Temperature: -11.0°C (12°F)
Dewpoint: -17.0°C ( 1°F) [RH = 61%]
Pressure (altimeter): 30.15 inches Hg (1021.0 mb)
Winds: from the WSW (240 degrees) at 14 MPH (12 knots; 6.2 m/s)
Visibility: 6 or more miles (10+ km)
Ceiling: ceiling and visibility are OK
Clouds: unknown
Weather: no significant weather observed at this time

METAR text: ZYCC 161300Z 23005MPS 8000 NSC M09/M16 Q1022 NOSIG
Conditions at: ZYCC (CHANGCHUN , CN) observed 1300 UTC 16 February 2019
Temperature: -9.0°C (16°F)
Dewpoint: -16.0°C ( 3°F) [RH = 57%]
Pressure (altimeter): 30.18 inches Hg (1022.0 mb)
Winds: from the SW (230 degrees) at 12 MPH (10 knots; 5.1 m/s)
Visibility: 5 miles ( 8 km)
Ceiling: at least 12,000 feet AGL
Clouds: sky clear below 12,000 feet AGL
Weather: no significant weather observed at this time

METAR text: ZYCC 161200Z 21004MPS 8000 NSC M09/M16 Q1022 NOSIG
Conditions at: ZYCC (CHANGCHUN , CN) observed 1200 UTC 16 February 2019
Temperature: -9.0°C (16°F)
Dewpoint: -16.0°C ( 3°F) [RH = 57%]
Pressure (altimeter): 30.18 inches Hg (1022.0 mb)
Winds: from the SSW (210 degrees) at 9 MPH (8 knots; 4.1 m/s)
Visibility: 5 miles ( 8 km)
Ceiling: at least 12,000 feet AGL
Clouds: sky clear below 12,000 feet AGL
Weather: no significant weather observed at this time

METAR text: ZYCC 161100Z 22004MPS 6000 NSC M09/M15 Q1022 NOSIG
Conditions at: ZYCC (CHANGCHUN , CN) observed 1100 UTC 16 February 2019
Temperature: -9.0°C (16°F)
Dewpoint: -15.0°C ( 5°F) [RH = 62%]
Pressure (altimeter): 30.18 inches Hg (1022.0 mb)
Winds: from the SW (220 degrees) at 9 MPH (8 knots; 4.1 m/s)
Visibility: 4 miles ( 6 km)
Ceiling: at least 12,000 feet AGL
Clouds: sky clear below 12,000 feet AGL
Weather: no significant weather observed at this time

METAR text: ZYCC 161000Z 23003MPS 8000 NSC M09/M16 Q1022 NOSIG
Conditions at: ZYCC (CHANGCHUN , CN) observed 1000 UTC 16 February 2019
Temperature: -9.0°C (16°F)
Dewpoint: -16.0°C ( 3°F) [RH = 57%]
Pressure (altimeter): 30.18 inches Hg (1022.0 mb)
Winds: from the SW (230 degrees) at 7 MPH (6 knots; 3.1 m/s)
Visibility: 5 miles ( 8 km)
Ceiling: at least 12,000 feet AGL
Clouds: sky clear below 12,000 feet AGL
Weather: no significant weather observed at this time

METAR text: ZYCC 160900Z 25003MPS CAVOK M07/M15 Q1022 NOSIG
Conditions at: ZYCC (CHANGCHUN , CN) observed 0900 UTC 16 February 2019
Temperature: -7.0°C (19°F)
Dewpoint: -15.0°C ( 5°F) [RH = 53%]
Pressure (altimeter): 30.18 inches Hg (1022.0 mb)
Winds: from the WSW (250 degrees) at 7 MPH (6 knots; 3.1 m/s)
Visibility: 6 or more miles (10+ km)
Ceiling: ceiling and visibility are OK
Clouds: unknown
Weather: no significant weather observed at this time

METAR text: ZYCC 160800Z 26004MPS 230V300 CAVOK M06/M17 Q1022 NOSIG
Conditions at: ZYCC (CHANGCHUN , CN) observed 0800 UTC 16 February 2019
Temperature: -6.0°C (21°F)
Dewpoint: -17.0°C ( 1°F) [RH = 41%]
Pressure (altimeter): 30.18 inches Hg (1022.0 mb)
Winds: from the W (260 degrees) at 9 MPH (8 knots; 4.1 m/s)
Visibility: 6 or more miles (10+ km)
Ceiling: ceiling and visibility are OK
Clouds: unknown
Weather: no significant weather observed at this time

METAR text: ZYCC 160700Z 26004MPS 230V290 CAVOK M05/M16 Q1022 NOSIG
Conditions at: ZYCC (CHANGCHUN , CN) observed 0700 UTC 16 February 2019
Temperature: -5.0°C (23°F)
Dewpoint: -16.0°C ( 3°F) [RH = 42%]
Pressure (altimeter): 30.18 inches Hg (1022.0 mb)
Winds: from the W (260 degrees) at 9 MPH (8 knots; 4.1 m/s)
Visibility: 6 or more miles (10+ km)
Ceiling: ceiling and visibility are OK
Clouds: unknown
Weather: no significant weather observed at this time

METAR text: ZYCC 160600Z 27004MPS 240V300 CAVOK M05/M15 Q1023 NOSIG
Conditions at: ZYCC (CHANGCHUN , CN) observed 0600 UTC 16 February 2019
Temperature: -5.0°C (23°F)
Dewpoint: -15.0°C ( 5°F) [RH = 45%]
Pressure (altimeter): 30.21 inches Hg (1023.0 mb)
Winds: from the W (270 degrees) at 9 MPH (8 knots; 4.1 m/s)
Visibility: 6 or more miles (10+ km)
Ceiling: ceiling and visibility are OK
Clouds: unknown
Weather: no significant weather observed at this time

METAR text: ZYCC 160500Z 26004MPS 220V300 CAVOK M05/M14 Q1023 NOSIG
Conditions at: ZYCC (CHANGCHUN , CN) observed 0500 UTC 16 February 2019
Temperature: -5.0°C (23°F)
Dewpoint: -14.0°C ( 7°F) [RH = 49%]
Pressure (altimeter): 30.21 inches Hg (1023.0 mb)
Winds: from the W (260 degrees) at 9 MPH (8 knots; 4.1 m/s)
Visibility: 6 or more miles (10+ km)
Ceiling: ceiling and visibility are OK
Clouds: unknown
Weather: no significant weather observed at this time

METAR text: ZYCC 160400Z 24006MPS 7000 NSC M07/M13 Q1024 NOSIG
Conditions at: ZYCC (CHANGCHUN , CN) observed 0400 UTC 16 February 2019
Temperature: -7.0°C (19°F)
Dewpoint: -13.0°C ( 9°F) [RH = 62%]
Pressure (altimeter): 30.24 inches Hg (1024.0 mb)
Winds: from the WSW (240 degrees) at 14 MPH (12 knots; 6.2 m/s)
Visibility: 4 miles ( 7 km)
Ceiling: at least 12,000 feet AGL
Clouds: sky clear below 12,000 feet AGL
Weather: no significant weather observed at this time

METAR text: ZYCC 160300Z 24005MPS 7000 NSC M08/M13 Q1024 NOSIG
Conditions at: ZYCC (CHANGCHUN , CN) observed 0300 UTC 16 February 2019
Temperature: -8.0°C (18°F)
Dewpoint: -13.0°C ( 9°F) [RH = 67%]
Pressure (altimeter): 30.24 inches Hg (1024.0 mb)
Winds: from the WSW (240 degrees) at 12 MPH (10 knots; 5.1 m/s)
Visibility: 4 miles ( 7 km)
Ceiling: at least 12,000 feet AGL
Clouds: sky clear below 12,000 feet AGL
Weather: no significant weather observed at this time

METAR text: ZYCC 160200Z 24006MPS 6000 NSC M10/M13 Q1025 NOSIG
Conditions at: ZYCC (CHANGCHUN , CN) observed 0200 UTC 16 February 2019
Temperature: -10.0°C (14°F)
Dewpoint: -13.0°C ( 9°F) [RH = 79%]
Pressure (altimeter): 30.27 inches Hg (1025.0 mb)
Winds: from the WSW (240 degrees) at 14 MPH (12 knots; 6.2 m/s)
Visibility: 4 miles ( 6 km)
Ceiling: at least 12,000 feet AGL
Clouds: sky clear below 12,000 feet AGL
Weather: no significant weather observed at this time

METAR text: ZYCC 160100Z 20004MPS 4000 BR NSC M12/M14 Q1025 NOSIG
Conditions at: ZYCC (CHANGCHUN , CN) observed 0100 UTC 16 February 2019
Temperature: -12.0°C (10°F)
Dewpoint: -14.0°C ( 7°F) [RH = 85%]
Pressure (altimeter): 30.27 inches Hg (1025.0 mb)
Winds: from the SSW (200 degrees) at 9 MPH (8 knots; 4.1 m/s)
Visibility: 2.49 miles (4.01 km)
Ceiling: at least 12,000 feet AGL
Clouds: sky clear below 12,000 feet AGL
Weather: BR  (mist)

METAR text: ZYCC 160000Z 20003MPS 160V220 2500 -SN BR FEW030 M15/M17 Q1025 NOSIG
Conditions at: ZYCC (CHANGCHUN , CN) observed 0000 UTC 16 February 2019
Temperature: -15.0°C ( 5°F)
Dewpoint: -17.0°C ( 1°F) [RH = 85%]
Pressure (altimeter): 30.27 inches Hg (1025.0 mb)
Winds: from the SSW (200 degrees) at 7 MPH (6 knots; 3.1 m/s)
Visibility: 1.55 miles (2.49 km)
Ceiling: at least 12,000 feet AGL
Clouds: few clouds at 3000 feet AGL
Weather: -SN BR  (light snow, mist)

METAR text: ZYCC 152300Z 21003MPS 3000 -SN BR FEW030 M17/M20 Q1025 NOSIG
Conditions at: ZYCC (CHANGCHUN , CN) observed 2300 UTC 15 February 2019
Temperature: -17.0°C ( 1°F)
Dewpoint: -20.0°C (-4°F) [RH = 77%]
Pressure (altimeter): 30.27 inches Hg (1025.0 mb)
Winds: from the SSW (210 degrees) at 7 MPH (6 knots; 3.1 m/s)
Visibility: 1.86 miles (2.99 km)
Ceiling: at least 12,000 feet AGL
Clouds: few clouds at 3000 feet AGL
Weather: -SN BR  (light snow, mist)

METAR text: ZYCC 152200Z 22004MPS 3000 -SN BR NSC M17/M20 Q1024 NOSIG
Conditions at: ZYCC (CHANGCHUN , CN) observed 2200 UTC 15 February 2019
Temperature: -17.0°C ( 1°F)
Dewpoint: -20.0°C (-4°F) [RH = 77%]
Pressure (altimeter): 30.24 inches Hg (1024.0 mb)
Winds: from the SW (220 degrees) at 9 MPH (8 knots; 4.1 m/s)
Visibility: 1.86 miles (2.99 km)
Ceiling: at least 12,000 feet AGL
Clouds: sky clear below 12,000 feet AGL
Weather: -SN BR  (light snow, mist)

METAR text: ZYCC 152100Z 24003MPS 3000 BR NSC M17/M20 Q1024 NOSIG
Conditions at: ZYCC (CHANGCHUN , CN) observed 2100 UTC 15 February 2019
Temperature: -17.0°C ( 1°F)
Dewpoint: -20.0°C (-4°F) [RH = 77%]
Pressure (altimeter): 30.24 inches Hg (1024.0 mb)
Winds: from the WSW (240 degrees) at 7 MPH (6 knots; 3.1 m/s)
Visibility: 1.86 miles (2.99 km)
Ceiling: at least 12,000 feet AGL
Clouds: sky clear below 12,000 feet AGL
Weather: BR  (mist)

METAR text: ZYCC 152000Z 24004MPS 3000 BR NSC M17/M20 Q1024 NOSIG
Conditions at: ZYCC (CHANGCHUN , CN) observed 2000 UTC 15 February 2019
Temperature: -17.0°C ( 1°F)
Dewpoint: -20.0°C (-4°F) [RH = 77%]
Pressure (altimeter): 30.24 inches Hg (1024.0 mb)
Winds: from the WSW (240 degrees) at 9 MPH (8 knots; 4.1 m/s)
Visibility: 1.86 miles (2.99 km)
Ceiling: at least 12,000 feet AGL
Clouds: sky clear below 12,000 feet AGL
Weather: BR  (mist)

METAR text: ZYCC 151900Z 24004MPS 3000 BR NSC M15/M18 Q1024 NOSIG
Conditions at: ZYCC (CHANGCHUN , CN) observed 1900 UTC 15 February 2019
Temperature: -15.0°C ( 5°F)
Dewpoint: -18.0°C (-0°F) [RH = 78%]
Pressure (altimeter): 30.24 inches Hg (1024.0 mb)
Winds: from the WSW (240 degrees) at 9 MPH (8 knots; 4.1 m/s)
Visibility: 1.86 miles (2.99 km)
Ceiling: at least 12,000 feet AGL
Clouds: sky clear below 12,000 feet AGL
Weather: BR  (mist)

METAR text: ZYCC 151800Z 25002MPS 4000 BR NSC M16/M18 Q1024 NOSIG
Conditions at: ZYCC (CHANGCHUN , CN) observed 1800 UTC 15 February 2019
Temperature: -16.0°C ( 3°F)
Dewpoint: -18.0°C (-0°F) [RH = 85%]
Pressure (altimeter): 30.24 inches Hg (1024.0 mb)
Winds: from the WSW (250 degrees) at 5 MPH (4 knots; 2.1 m/s)
Visibility: 2.49 miles (4.01 km)
Ceiling: at least 12,000 feet AGL
Clouds: sky clear below 12,000 feet AGL
Weather: BR  (mist)

METAR text: ZYCC 151700Z 24003MPS 4000 BR NSC M15/M17 Q1024 NOSIG
Conditions at: ZYCC (CHANGCHUN , CN) observed 1700 UTC 15 February 2019
Temperature: -15.0°C ( 5°F)
Dewpoint: -17.0°C ( 1°F) [RH = 85%]
Pressure (altimeter): 30.24 inches Hg (1024.0 mb)
Winds: from the WSW (240 degrees) at 7 MPH (6 knots; 3.1 m/s)
Visibility: 2.49 miles (4.01 km)
Ceiling: at least 12,000 feet AGL
Clouds: sky clear below 12,000 feet AGL
Weather: BR  (mist)

METAR text: ZYCC 151600Z 26002MPS 4000 BR NSC M14/M17 Q1024 NOSIG
Conditions at: ZYCC (CHANGCHUN , CN) observed 1600 UTC 15 February 2019
Temperature: -14.0°C ( 7°F)
Dewpoint: -17.0°C ( 1°F) [RH = 78%]
Pressure (altimeter): 30.24 inches Hg (1024.0 mb)
Winds: from the W (260 degrees) at 5 MPH (4 knots; 2.1 m/s)
Visibility: 2.49 miles (4.01 km)
Ceiling: at least 12,000 feet AGL
Clouds: sky clear below 12,000 feet AGL
Weather: BR  (mist)

METAR text: ZYCC 151500Z 28002MPS 4000 BR BKN023 M11/M14 Q1024 NOSIG
Conditions at: ZYCC (CHANGCHUN , CN) observed 1500 UTC 15 February 2019
Temperature: -11.0°C (12°F)
Dewpoint: -14.0°C ( 7°F) [RH = 78%]
Pressure (altimeter): 30.24 inches Hg (1024.0 mb)
Winds: from the W (280 degrees) at 5 MPH (4 knots; 2.1 m/s)
Visibility: 2.49 miles (4.01 km)
Ceiling: 2300 feet AGL
Clouds: broken clouds at 2300 feet AGL
Weather: BR  (mist)

METAR text: ZYCC 151400Z 29002MPS 3000 BR BKN023 M09/M12 Q1024 NOSIG
Conditions at: ZYCC (CHANGCHUN , CN) observed 1400 UTC 15 February 2019
Temperature: -9.0°C (16°F)
Dewpoint: -12.0°C (10°F) [RH = 79%]
Pressure (altimeter): 30.24 inches Hg (1024.0 mb)
Winds: from the WNW (290 degrees) at 5 MPH (4 knots; 2.1 m/s)
Visibility: 1.86 miles (2.99 km)
Ceiling: 2300 feet AGL
Clouds: broken clouds at 2300 feet AGL
Weather: BR  (mist)

METAR text: ZYCC 151300Z 28002MPS 3000 BR BKN023 M09/M12 Q1024 NOSIG
Conditions at: ZYCC (CHANGCHUN , CN) observed 1300 UTC 15 February 2019
Temperature: -9.0°C (16°F)
Dewpoint: -12.0°C (10°F) [RH = 79%]
Pressure (altimeter): 30.24 inches Hg (1024.0 mb)
Winds: from the W (280 degrees) at 5 MPH (4 knots; 2.1 m/s)
Visibility: 1.86 miles (2.99 km)
Ceiling: 2300 feet AGL
Clouds: broken clouds at 2300 feet AGL
Weather: BR  (mist)

METAR text: ZYCC 151200Z 30002MPS 2500 BR FEW010 BKN023 M10/M12 Q1023 BECMG TL1230 3000
Conditions at: ZYCC (CHANGCHUN , CN) observed 1200 UTC 15 February 2019
Temperature: -10.0°C (14°F)
Dewpoint: -12.0°C (10°F) [RH = 85%]
Pressure (altimeter): 30.21 inches Hg (1023.0 mb)
Winds: from the WNW (300 degrees) at 5 MPH (4 knots; 2.1 m/s)
Visibility: 1.55 miles (2.49 km)
Ceiling: 2300 feet AGL
Clouds: few clouds at 1000 feet AGL
broken clouds at 2300 feet AGL
Weather: BR  (mist)

METAR text: ZYCC 151100Z 30001MPS 2000 -SN BR FEW010 BKN023 M09/M11 Q1023 NOSIG
Conditions at: ZYCC (CHANGCHUN , CN) observed 1100 UTC 15 February 2019
Temperature: -9.0°C (16°F)
Dewpoint: -11.0°C (12°F) [RH = 85%]
Pressure (altimeter): 30.21 inches Hg (1023.0 mb)
Winds: from the WNW (300 degrees) at 2 MPH (2 knots; 1.0 m/s)
Visibility: 1.24 miles (2.00 km)
Ceiling: 2300 feet AGL
Clouds: few clouds at 1000 feet AGL
broken clouds at 2300 feet AGL
Weather: -SN BR  (light snow, mist)

METAR text: ZYCC 151000Z VRB01MPS 2000 -SN BR FEW010 BKN023 M08/M11 Q1022 BECMG TL1130 3000
Conditions at: ZYCC (CHANGCHUN , CN) observed 1000 UTC 15 February 2019
Temperature: -8.0°C (18°F)
Dewpoint: -11.0°C (12°F) [RH = 79%]
Pressure (altimeter): 30.18 inches Hg (1022.0 mb)
Winds: variable direction winds at 2 MPH (2 knots; 1.0 m/s)
Visibility: 1.24 miles (2.00 km)
Ceiling: 2300 feet AGL
Clouds: few clouds at 1000 feet AGL
broken clouds at 2300 feet AGL
Weather: -SN BR  (light snow, mist)

Forecast for: ZYCC (CHANGCHUN , CN)
Text: TAF ZYCC 161303Z 1618/1718 24004MPS 6000 NSC TXM01/06Z TNM13/21Z
Forecast period: 1800 UTC 16 February 2019 to 1800 UTC 17 February 2019
Forecast type: FROM: standard forecast or significant change
Winds: from the WSW (240 degrees) at 9 MPH (8 knots; 4.1 m/s)
Visibility: 4 miles (6 km)
Ceiling: unknown
Clouds: missing
Weather: no significant weather forecast for this period